Time;durP1;ratioP1;P1;durP2;ratioP2;P2;SDS_P1;SDS_P2;PMS_P1;PMS_P2;Temp;Humidity;BMP_temperature;BMP_pressure;BME280_temperature;BME280_humidity;BME280_pressure;Samples;Min_cycle;Max_cycle;Signal;HPM_P1;HPM_P2
2022/02/15 00:00:38;;;;;;;1.80;1.60;;;10.50;77.70;;;;;;4792770;29;20129;-80
2022/02/15 00:03:06;;;;;;;2.53;1.60;;;10.50;77.70;;;;;;4807735;29;20027;-79
2022/02/15 00:05:32;;;;;;;1.85;1.58;;;10.50;77.80;;;;;;4810509;29;20380;-80
2022/02/15 00:07:57;;;;;;;2.20;1.60;;;10.50;77.80;;;;;;4811481;29;20038;-80
2022/02/15 00:10:23;;;;;;;2.03;1.50;;;10.50;77.80;;;;;;4795909;29;20034;-79
2022/02/15 00:12:49;;;;;;;2.00;1.65;;;10.50;77.70;;;;;;4825969;29;20027;-80
2022/02/15 00:15:15;;;;;;;1.60;1.50;;;10.50;77.80;;;;;;4825986;29;20055;-79
2022/02/15 00:17:41;;;;;;;2.10;1.50;;;10.50;77.80;;;;;;4825992;29;20069;-80
2022/02/15 00:20:09;;;;;;;2.13;1.70;;;10.50;77.80;;;;;;4826480;29;20038;-80
2022/02/15 00:22:35;;;;;;;2.05;1.48;;;10.40;77.70;;;;;;4826338;29;20035;-80
2022/02/15 00:25:01;;;;;;;1.73;1.60;;;10.40;77.80;;;;;;4811071;29;20034;-81
2022/02/15 00:27:27;;;;;;;1.70;1.60;;;10.40;77.80;;;;;;4810971;29;20468;-79
2022/02/15 00:29:53;;;;;;;2.15;1.90;;;10.40;77.80;;;;;;4826362;29;20038;-80
2022/02/15 00:32:21;;;;;;;1.98;1.77;;;10.40;77.80;;;;;;4826616;29;20034;-79
2022/02/15 00:34:46;;;;;;;2.63;1.70;;;10.40;77.80;;;;;;4810779;29;20467;-79
2022/02/15 00:37:13;;;;;;;2.53;1.60;;;10.40;77.80;;;;;;4825672;29;20034;-80
2022/02/15 00:39:39;;;;;;;2.10;1.65;;;10.40;77.80;;;;;;4825863;29;20045;-80
2022/02/15 00:42:05;;;;;;;1.98;1.70;;;10.40;77.80;;;;;;4825926;29;20135;-80
2022/02/15 00:44:34;;;;;;;2.80;1.90;;;10.40;77.80;;;;;;4825813;29;20480;-81
2022/02/15 00:47:00;;;;;;;2.10;1.67;;;10.30;77.80;;;;;;4810866;29;20429;-82
2022/02/15 00:49:26;;;;;;;1.83;1.45;;;10.40;77.80;;;;;;4810580;29;20045;-80
2022/02/15 00:51:52;;;;;;;2.05;1.83;;;10.30;77.80;;;;;;4825587;29;20031;-80
2022/02/15 00:54:19;;;;;;;2.08;1.77;;;10.40;77.90;;;;;;4810857;29;20125;-80
2022/02/15 00:56:45;;;;;;;2.50;2.22;;;10.30;77.80;;;;;;4811062;29;20102;-79
2022/02/15 00:59:11;;;;;;;3.78;2.35;;;10.30;77.80;;;;;;4825673;29;20034;-80
2022/02/15 01:01:37;;;;;;;2.75;1.95;;;10.30;77.80;;;;;;4825482;29;20400;-79
2022/02/15 01:04:04;;;;;;;2.90;2.13;;;10.30;77.80;;;;;;4795419;29;20175;-81
2022/02/15 01:06:30;;;;;;;4.63;2.00;;;10.30;77.80;;;;;;4810400;29;20042;-79
2022/02/15 01:08:56;;;;;;;2.35;1.92;;;10.30;77.80;;;;;;4825522;29;20107;-79
2022/02/15 01:11:22;;;;;;;2.30;1.80;;;10.30;77.80;;;;;;4810894;29;20522;-80
2022/02/15 01:13:48;;;;;;;2.78;2.08;;;10.30;77.80;;;;;;4801089;29;20092;-79
2022/02/15 01:16:14;;;;;;;2.67;1.98;;;10.30;77.80;;;;;;4812613;29;20456;-79
2022/02/15 01:18:40;;;;;;;3.40;2.22;;;10.30;77.80;;;;;;4783174;29;20079;-79
2022/02/15 01:21:06;;;;;;;2.63;2.00;;;10.30;77.80;;;;;;4829059;29;20124;-80
2022/02/15 01:23:32;;;;;;;3.17;2.20;;;10.30;77.80;;;;;;4813220;29;20076;-80
2022/02/15 01:25:58;;;;;;;2.58;2.08;;;10.30;77.80;;;;;;4798166;29;20038;-80
2022/02/15 01:28:24;;;;;;;2.70;2.10;;;10.30;77.90;;;;;;4812911;29;20026;-80
2022/02/15 01:30:51;;;;;;;3.10;2.13;;;10.30;77.90;;;;;;4827688;29;20086;-80
2022/02/15 01:33:17;;;;;;;3.50;2.50;;;10.30;77.90;;;;;;4813117;29;20022;-81
2022/02/15 01:35:43;;;;;;;2.67;2.30;;;10.30;77.90;;;;;;4797851;29;20042;-80
2022/02/15 01:38:11;;;;;;;3.03;2.22;;;10.30;77.90;;;;;;4813193;29;20041;-80
2022/02/15 01:40:37;;;;;;;2.70;2.00;;;10.30;77.90;;;;;;4813044;29;20060;-80
2022/02/15 01:43:03;;;;;;;4.28;2.60;;;10.30;77.90;;;;;;4812948;29;20038;-80
2022/02/15 01:45:29;;;;;;;3.53;2.55;;;10.30;77.90;;;;;;4797657;29;20482;-79
2022/02/15 01:47:55;;;;;;;2.90;2.30;;;10.30;77.90;;;;;;4812791;29;20030;-79
2022/02/15 01:50:21;;;;;;;2.50;2.10;;;10.30;77.90;;;;;;4812419;29;20183;-79
2022/02/15 01:52:47;;;;;;;4.00;2.70;;;10.30;77.90;;;;;;4813143;29;20070;-80
2022/02/15 01:55:15;;;;;;;3.90;2.50;;;10.30;77.90;;;;;;4797818;29;20092;-80
2022/02/15 01:57:42;;;;;;;3.55;2.50;;;10.20;77.80;;;;;;4812418;29;20037;-79
2022/02/15 02:00:19;;;;;;;3.80;2.42;;;10.20;77.80;;;;;;4814540;29;20064;-80
2022/02/15 02:02:53;;;;;;;3.35;2.63;;;10.20;77.80;;;;;;4814174;29;20145;-80
2022/02/15 02:08:07;;;;;;;3.20;2.42;;;10.20;77.90;;;;;;4827804;29;20049;-80
2022/02/15 02:10:39;;;;;;;3.80;2.60;;;10.20;77.90;;;;;;4813312;29;20034;-80
2022/02/15 02:13:11;;;;;;;3.78;2.50;;;10.20;77.80;;;;;;4812889;29;20038;-80
2022/02/15 02:15:37;;;;;;;3.85;2.70;;;10.20;77.90;;;;;;4812334;29;20037;-79
2022/02/15 02:18:19;;;;;;;3.67;2.60;;;10.20;77.90;;;;;;4827055;29;20040;-80
2022/02/15 02:20:48;;;;;;;3.58;2.67;;;10.20;77.90;;;;;;4813040;29;20049;-81
2022/02/15 02:23:20;;;;;;;3.78;2.38;;;10.20;77.90;;;;;;4827237;29;20128;-80
2022/02/15 02:25:47;;;;;;;4.53;2.83;;;10.20;78.00;;;;;;4827469;29;20547;-82
2022/02/15 02:28:17;;;;;;;3.95;2.40;;;10.20;77.90;;;;;;4812309;29;20042;-80
2022/02/15 02:30:43;;;;;;;4.00;2.72;;;10.20;78.50;;;;;;4812048;29;20052;-80
2022/02/15 02:33:09;;;;;;;3.78;2.95;;;10.20;77.90;;;;;;4812019;29;20030;-81
2022/02/15 02:35:35;;;;;;;4.28;3.03;;;10.20;77.90;;;;;;4843463;29;20045;-80
2022/02/15 02:38:01;;;;;;;4.72;3.08;;;10.20;77.90;;;;;;4827232;29;20034;-80
2022/02/15 02:40:27;;;;;;;4.47;3.00;;;10.20;78.00;;;;;;4811722;29;20034;-80
2022/02/15 02:42:53;;;;;;;3.55;2.35;;;10.20;78.00;;;;;;4811854;29;20033;-80
2022/02/15 02:45:21;;;;;;;4.78;2.90;;;10.20;78.00;;;;;;4796519;29;20440;-80
2022/02/15 02:47:50;;;;;;;3.78;2.83;;;10.20;78.00;;;;;;4811772;29;20030;-80
2022/02/15 02:50:18;;;;;;;5.05;3.10;;;10.10;77.90;;;;;;4811757;29;20206;-81
2022/02/15 02:52:44;;;;;;;3.63;2.70;;;10.10;77.90;;;;;;4811430;29;20495;-80
2022/02/15 02:55:12;;;;;;;4.25;2.70;;;10.20;78.00;;;;;;4827014;29;20030;-81
2022/02/15 02:57:39;;;;;;;3.38;2.45;;;10.20;78.00;;;;;;4811090;29;20025;-82
2022/02/15 03:00:11;;;;;;;3.92;2.20;;;10.20;78.00;;;;;;4812142;29;20065;-79
2022/02/15 03:02:57;;;;;;;4.20;2.70;;;10.10;77.90;;;;;;4814565;29;20034;-80
2022/02/15 03:05:24;;;;;;;4.28;2.53;;;10.20;78.00;;;;;;4812021;29;20386;-80
2022/02/15 03:07:49;;;;;;;3.30;2.42;;;10.10;77.90;;;;;;4782276;29;20026;-80
2022/02/15 03:10:15;;;;;;;2.92;2.28;;;10.10;78.00;;;;;;4811357;29;20033;-80
2022/02/15 03:12:42;;;;;;;3.35;2.22;;;10.10;77.90;;;;;;4781355;29;20038;-79
2022/02/15 03:15:08;;;;;;;3.53;2.72;;;10.10;78.00;;;;;;4796513;29;20117;-79
2022/02/15 03:17:38;;;;;;;3.22;2.47;;;10.10;78.00;;;;;;4812006;29;20046;-79
2022/02/15 03:20:04;;;;;;;3.58;2.40;;;10.10;78.00;;;;;;4811990;29;20384;-81
2022/02/15 03:22:30;;;;;;;2.97;2.25;;;10.10;78.00;;;;;;4811337;29;20123;-79
2022/02/15 03:24:56;;;;;;;3.13;2.47;;;10.10;78.00;;;;;;4827136;29;20038;-79
2022/02/15 03:27:22;;;;;;;2.78;2.10;;;10.10;78.00;;;;;;4811807;29;20030;-80
2022/02/15 03:29:49;;;;;;;4.15;2.30;;;10.10;78.00;;;;;;4812118;29;20417;-80
2022/02/15 03:32:16;;;;;;;3.42;2.30;;;10.10;78.00;;;;;;4811341;29;20030;-80
2022/02/15 03:34:42;;;;;;;3.30;2.45;;;10.00;77.90;;;;;;4826301;29;20110;-80
2022/02/15 03:37:08;;;;;;;3.53;2.55;;;10.10;78.00;;;;;;4811318;29;20034;-78
2022/02/15 03:39:35;;;;;;;2.60;2.13;;;10.10;78.00;;;;;;4813813;29;20045;-80
2022/02/15 03:44:53;;;;;;;2.55;2.10;;;10.00;78.00;;;;;;4830614;29;20042;-80
2022/02/15 03:47:26;;;;;;;3.27;2.10;;;10.00;78.00;;;;;;4815952;29;20534;-80
2022/02/15 03:49:52;;;;;;;4.20;2.17;;;10.00;78.00;;;;;;4830102;29;20290;-80
2022/02/15 03:52:18;;;;;;;3.17;2.45;;;10.00;78.00;;;;;;4814701;29;20438;-82
2022/02/15 03:54:46;;;;;;;2.75;2.10;;;10.00;78.00;;;;;;4785565;29;20535;-80
2022/02/15 03:57:13;;;;;;;2.70;1.90;;;10.00;78.00;;;;;;4814596;29;20063;-80
2022/02/15 03:59:38;;;;;;;2.88;2.20;;;10.00;78.00;;;;;;4814832;29;20124;-79
2022/02/15 04:02:10;;;;;;;2.78;1.90;;;10.00;78.10;;;;;;4815883;29;20030;-80
2022/02/15 04:04:37;;;;;;;3.00;2.05;;;10.00;78.00;;;;;;4814948;29;20042;-81
2022/02/15 04:07:03;;;;;;;3.42;1.90;;;10.00;78.10;;;;;;4830347;29;20547;-80
2022/02/15 04:09:30;;;;;;;2.97;2.15;;;10.00;78.10;;;;;;4814630;29;20041;-80
2022/02/15 04:11:55;;;;;;;3.58;2.40;;;10.00;78.10;;;;;;4814334;29;20033;-80
2022/02/15 04:14:26;;;;;;;3.20;2.40;;;10.00;78.10;;;;;;4829141;29;20068;-78
2022/02/15 04:16:52;;;;;;;2.95;2.30;;;10.00;78.00;;;;;;4814073;29;20045;-80
2022/02/15 04:19:18;;;;;;;2.50;2.00;;;9.90;78.00;;;;;;4799165;29;20531;-81
2022/02/15 04:21:44;;;;;;;3.08;2.40;;;10.00;78.00;;;;;;4814092;29;20386;-81
2022/02/15 04:24:11;;;;;;;3.00;2.22;;;9.90;78.00;;;;;;4814001;29;20561;-80
2022/02/15 04:26:37;;;;;;;3.00;2.20;;;9.90;78.00;;;;;;4798620;29;20049;-80
2022/02/15 04:29:03;;;;;;;3.42;2.40;;;9.90;78.00;;;;;;4813902;29;20053;-81
2022/02/15 04:31:34;;;;;;;2.95;2.28;;;10.00;78.10;;;;;;4814779;29;20130;-80
2022/02/15 04:34:00;;;;;;;3.25;1.90;;;9.90;78.00;;;;;;4813890;29;20065;-80
2022/02/15 04:36:26;;;;;;;2.80;2.20;;;9.90;78.00;;;;;;4784636;29;20031;-80
2022/02/15 04:38:55;;;;;;;3.25;2.10;;;9.90;78.00;;;;;;4828520;29;20040;-79
2022/02/15 04:41:21;;;;;;;4.10;2.17;;;9.90;78.00;;;;;;4814120;29;20041;-80
2022/02/15 04:43:50;;;;;;;3.42;2.28;;;9.90;78.10;;;;;;4814909;29;20046;-79
2022/02/15 04:46:23;;;;;;;3.10;2.17;;;9.90;78.10;;;;;;4815118;29;20030;-81
2022/02/15 04:48:49;;;;;;;3.47;2.30;;;9.90;78.10;;;;;;4813852;29;20487;-80
2022/02/15 04:51:16;;;;;;;3.20;2.10;;;9.90;78.10;;;;;;4813211;29;20399;-80
2022/02/15 04:53:45;;;;;;;3.10;2.10;;;9.90;78.10;;;;;;4829530;29;20038;-80
2022/02/15 04:56:12;;;;;;;4.05;2.53;;;9.90;78.10;;;;;;4813554;29;20037;-81
2022/02/15 04:58:39;;;;;;;3.63;2.60;;;9.90;78.10;;;;;;4828777;29;20045;-81
2022/02/15 05:01:06;;;;;;;4.68;2.42;;;9.90;78.10;;;;;;4813207;29;20042;-80
2022/02/15 05:03:51;;;;;;;3.45;2.38;;;9.90;78.10;;;;;;4844292;29;20046;-78
2022/02/15 05:06:18;;;;;;;3.40;2.47;;;9.90;78.10;;;;;;4813209;29;20038;-78
2022/02/15 05:08:44;;;;;;;3.15;2.28;;;9.80;78.10;;;;;;4813069;29;20112;-77
2022/02/15 05:11:10;;;;;;;3.25;2.20;;;9.90;78.10;;;;;;4798213;29;20170;-77
2022/02/15 05:13:42;;;;;;;4.20;2.47;;;9.80;78.10;;;;;;4813981;29;20058;-77
2022/02/15 05:16:23;;;;;;;4.05;2.80;;;9.90;78.10;;;;;;4815481;29;20090;-76
2022/02/15 05:19:09;;;;;;;3.00;2.33;;;9.80;78.10;;;;;;4805676;29;20130;-76
2022/02/15 05:21:35;;;;;;;3.60;2.67;;;9.80;78.00;;;;;;4827982;29;20395;-77
2022/02/15 05:24:01;;;;;;;4.07;2.70;;;9.90;78.10;;;;;;4812947;29;20030;-76
2022/02/15 05:26:38;;;;;;;4.50;2.92;;;9.80;78.10;;;;;;4814024;29;20137;-77
2022/02/15 05:29:05;;;;;;;3.22;2.50;;;9.80;78.10;;;;;;4828110;29;20030;-76
2022/02/15 05:31:38;;;;;;;3.20;2.30;;;9.80;78.10;;;;;;4813349;29;20026;-77
2022/02/15 05:34:08;;;;;;;5.00;3.45;;;9.80;78.10;;;;;;4828661;29;20447;-76
2022/02/15 05:36:36;;;;;;;4.70;2.83;;;9.80;78.10;;;;;;4827992;29;20033;-77
2022/02/15 05:39:03;;;;;;;3.97;2.85;;;9.80;78.20;;;;;;4812497;29;20523;-76
2022/02/15 05:41:33;;;;;;;4.63;3.22;;;9.80;78.10;;;;;;4814099;29;20038;-77
2022/02/15 05:44:02;;;;;;;5.40;3.55;;;9.80;78.10;;;;;;4813137;29;20072;-75
2022/02/15 05:46:29;;;;;;;4.07;3.03;;;9.80;78.10;;;;;;4813248;29;20041;-76
2022/02/15 05:48:55;;;;;;;5.00;3.10;;;9.80;78.10;;;;;;4812447;29;20034;-78
2022/02/15 05:51:33;;;;;;;5.30;3.35;;;9.80;78.10;;;;;;4828275;29;20030;-76
2022/02/15 05:54:14;;;;;;;5.07;3.20;;;9.80;78.10;;;;;;4813951;29;20038;-77
2022/02/15 05:56:41;;;;;;;4.32;2.83;;;9.80;78.10;;;;;;4797832;29;20070;-83
2022/02/15 05:59:17;;;;;;;5.20;3.25;;;9.80;78.20;;;;;;4827878;29;20154;-80
2022/02/15 06:01:53;;;;;;;4.57;3.28;;;9.80;78.10;;;;;;4800525;29;20038;-79
2022/02/15 06:04:20;;;;;;;5.18;3.42;;;9.80;78.20;;;;;;4783054;29;20038;-79
2022/02/15 06:07:05;;;;;;;5.18;3.60;;;9.80;78.20;;;;;;4827628;29;20486;-80
2022/02/15 06:09:31;;;;;;;5.40;3.30;;;9.80;78.20;;;;;;4813159;29;20371;-80
2022/02/15 06:11:57;;;;;;;6.82;3.90;;;9.80;78.20;;;;;;4812159;29;20478;-81
2022/02/15 06:14:32;;;;;;;;;;;9.80;78.20;;;;;;4813575;29;20064;-77
2022/02/15 06:17:01;;;;;;;5.15;3.40;;;9.80;78.20;;;;;;4812172;29;19917;-76
2022/02/15 06:19:27;;;;;;;5.38;3.47;;;9.80;78.10;;;;;;4812337;29;20040;-78
2022/02/15 06:21:53;;;;;;;4.55;3.35;;;9.80;78.20;;;;;;4796822;29;20038;-78
2022/02/15 06:24:31;;;;;;;5.35;3.83;;;9.80;78.30;;;;;;4813956;29;20026;-76
2022/02/15 06:27:07;;;;;;;6.00;4.20;;;9.80;78.20;;;;;;4827974;29;20053;-78
2022/02/15 06:29:50;;;;;;;5.57;4.05;;;9.70;78.20;;;;;;4814070;29;20057;-78
2022/02/15 06:32:24;;;;;;;5.35;4.15;;;9.80;78.20;;;;;;4813217;29;20391;-79
2022/02/15 06:34:50;;;;;;;7.10;4.43;;;9.80;78.20;;;;;;4811795;29;20041;-78
2022/02/15 06:37:16;;;;;;;5.75;4.25;;;9.70;78.20;;;;;;4826776;29;20488;-79
2022/02/15 06:39:47;;;;;;;6.70;4.40;;;9.70;78.20;;;;;;4826999;29;20551;-78
2022/02/15 06:42:15;;;;;;;5.72;4.35;;;9.80;78.30;;;;;;4812169;29;20030;-80
2022/02/15 06:44:42;;;;;;;6.00;4.10;;;9.80;78.30;;;;;;4826904;29;20034;-79
2022/02/15 06:47:08;;;;;;;6.20;4.53;;;9.80;78.30;;;;;;4811545;29;20042;-81
2022/02/15 06:49:34;;;;;;;6.75;4.68;;;9.80;78.30;;;;;;4811692;29;20033;-79
2022/02/15 06:52:29;;;;;;;6.65;5.07;;;9.70;78.20;;;;;;4777334;29;20060;-80
2022/02/15 06:55:08;;;;;;;7.15;4.57;;;9.80;78.20;;;;;;4813127;29;20120;-79
2022/02/15 06:57:39;;;;;;;6.40;4.65;;;9.80;78.30;;;;;;4812687;29;20037;-79
2022/02/15 07:00:06;;;;;;;7.03;5.18;;;9.80;78.30;;;;;;4811391;29;20042;-80
2022/02/15 07:02:35;;;;;;;7.65;4.97;;;9.80;78.30;;;;;;4827089;29;20541;-79
2022/02/15 07:05:02;;;;;;;8.02;5.68;;;9.80;78.30;;;;;;4796655;29;20460;-78
2022/02/15 07:07:28;;;;;;;6.85;5.15;;;9.80;78.30;;;;;;4811630;29;20128;-80
2022/02/15 07:09:55;;;;;;;7.00;5.28;;;9.80;78.30;;;;;;4826929;29;20078;-79
2022/02/15 07:12:41;;;;;;;6.75;5.43;;;9.80;78.30;;;;;;4816538;29;20048;-79
2022/02/15 07:15:14;;;;;;;6.43;4.88;;;9.80;78.30;;;;;;4812423;29;20042;-79
2022/02/15 07:17:45;;;;;;;6.60;4.63;;;9.80;78.20;;;;;;4826654;29;20042;-79
2022/02/15 07:20:17;;;;;;;6.80;5.13;;;9.80;78.30;;;;;;4827328;29;20061;-79
2022/02/15 07:22:58;;;;;;;7.28;5.10;;;9.80;78.40;;;;;;4815473;29;20137;-80
2022/02/15 07:25:43;;;;;;;7.32;5.55;;;9.80;78.30;;;;;;4813791;29;20133;-79
2022/02/15 07:28:34;;;;;;;6.18;5.15;;;9.70;78.20;;;;;;4814690;29;20494;-79
2022/02/15 07:31:00;;;;;;;6.78;5.25;;;9.80;78.90;;;;;;4811546;29;20042;-81
2022/02/15 07:33:26;;;;;;;7.88;6.00;;;9.80;78.40;;;;;;4811121;29;20030;-80
2022/02/15 07:35:52;;;;;;;8.05;5.50;;;9.80;78.40;;;;;;4811105;29;20082;-79
2022/02/15 07:38:17;;;;;;;7.70;5.85;;;9.80;78.40;;;;;;4826795;29;20041;-80
2022/02/15 07:40:43;;;;;;;6.93;5.35;;;9.80;78.40;;;;;;4826184;29;20070;-78
2022/02/15 07:43:09;;;;;;;7.95;5.32;;;9.80;78.40;;;;;;4811011;29;20341;-80
2022/02/15 07:45:41;;;;;;;7.50;5.68;;;9.80;78.40;;;;;;4812394;29;20082;-78
2022/02/15 07:48:08;;;;;;;7.10;5.38;;;9.80;78.40;;;;;;4796661;29;20042;-79
2022/02/15 07:50:35;;;;;;;8.98;6.53;;;9.80;78.40;;;;;;4826370;29;20170;-79
2022/02/15 07:53:01;;;;;;;7.80;5.45;;;9.80;78.40;;;;;;4826347;29;20034;-79
2022/02/15 07:55:27;;;;;;;8.00;5.93;;;9.80;78.40;;;;;;4810578;29;20046;-80
2022/02/15 07:57:53;;;;;;;8.90;5.65;;;9.80;78.40;;;;;;4811074;29;20041;-78
2022/02/15 08:00:21;;;;;;;7.38;5.78;;;9.80;78.40;;;;;;4842591;29;20040;-79
2022/02/15 08:02:52;;;;;;;7.30;5.25;;;9.80;78.40;;;;;;4842067;29;20436;-79
2022/02/15 08:05:20;;;;;;;7.55;5.40;;;9.80;78.40;;;;;;4826174;29;20129;-80
2022/02/15 08:07:55;;;;;;;7.03;5.25;;;9.80;78.40;;;;;;4811534;29;20448;-78
2022/02/15 08:10:23;;;;;;;7.53;5.67;;;9.80;78.40;;;;;;4825509;29;20042;-79
2022/02/15 08:12:55;;;;;;;7.60;5.55;;;9.80;78.30;;;;;;4826210;29;20036;-78
2022/02/15 08:15:28;;;;;;;6.97;5.22;;;9.80;78.40;;;;;;4811672;29;20484;-79
2022/02/15 08:17:55;;;;;;;7.22;5.55;;;9.80;78.40;;;;;;4826180;29;20030;-79
2022/02/15 08:20:22;;;;;;;8.23;5.47;;;9.80;78.40;;;;;;4811307;29;20045;-79
2022/02/15 08:22:48;;;;;;;7.10;5.28;;;9.80;78.40;;;;;;4825741;29;20121;-80
2022/02/15 08:25:14;;;;;;;6.90;5.10;;;9.80;78.40;;;;;;4782184;29;20066;-79
2022/02/15 08:27:39;;;;;;;6.70;5.38;;;9.90;78.40;;;;;;4813929;29;20069;-79
2022/02/15 08:30:06;;;;;;;7.85;5.50;;;9.90;78.40;;;;;;4814152;29;20163;-79
2022/02/15 08:32:32;;;;;;;7.55;5.80;;;9.80;78.40;;;;;;4814534;29;20034;-79
2022/02/15 08:34:58;;;;;;;8.07;5.95;;;9.90;78.40;;;;;;4829221;29;20040;-79
2022/02/15 08:37:24;;;;;;;6.97;5.15;;;9.80;78.40;;;;;;4828932;29;20030;-79
2022/02/15 08:39:50;;;;;;;7.18;5.47;;;9.90;78.40;;;;;;4829051;29;20511;-79
2022/02/15 08:42:16;;;;;;;6.55;4.97;;;9.90;78.40;;;;;;4828745;29;20121;-79
2022/02/15 08:44:43;;;;;;;7.35;5.10;;;9.90;78.40;;;;;;4813628;29;20121;-78
2022/02/15 08:47:09;;;;;;;6.45;4.47;;;9.90;78.50;;;;;;4845215;29;20102;-80
2022/02/15 08:49:37;;;;;;;8.38;5.00;;;9.90;78.50;;;;;;4813395;29;20034;-78
2022/02/15 08:52:05;;;;;;;5.63;4.35;;;9.90;78.40;;;;;;4813488;29;20061;-79
2022/02/15 08:54:31;;;;;;;7.00;5.05;;;9.90;78.50;;;;;;4828552;29;20037;-79
2022/02/15 08:56:56;;;;;;;7.68;4.75;;;9.90;78.50;;;;;;4828476;29;20040;-79
2022/02/15 08:59:22;;;;;;;6.15;4.55;;;9.90;78.50;;;;;;4813433;29;20086;-80
2022/02/15 09:01:48;;;;;;;6.47;4.75;;;9.90;78.50;;;;;;4813672;29;20391;-79
2022/02/15 09:04:15;;;;;;;6.40;4.53;;;9.90;78.40;;;;;;4828392;29;20048;-78
2022/02/15 09:06:42;;;;;;;6.70;4.40;;;9.90;78.50;;;;;;4828379;29;20475;-78
2022/02/15 09:09:09;;;;;;;6.00;4.32;;;9.90;78.50;;;;;;4828277;29;20475;-79
2022/02/15 09:11:36;;;;;;;6.82;4.63;;;10.00;79.00;;;;;;4813113;29;20061;-80
2022/02/15 09:14:03;;;;;;;5.30;3.75;;;10.00;78.50;;;;;;4812597;29;20061;-78
2022/02/15 09:16:30;;;;;;;5.95;4.47;;;10.00;78.50;;;;;;4813372;29;20069;-80
2022/02/15 09:18:57;;;;;;;6.07;4.13;;;10.00;78.50;;;;;;4828488;29;20056;-80
2022/02/15 09:21:23;;;;;;;5.30;3.60;;;10.00;78.50;;;;;;4844703;29;20056;-80
2022/02/15 09:23:49;;;;;;;5.97;4.00;;;10.00;78.50;;;;;;4828303;29;20069;-80
2022/02/15 09:26:15;;;;;;;6.18;4.20;;;10.00;78.50;;;;;;4828319;29;20030;-78
2022/02/15 09:28:41;;;;;;;6.32;3.75;;;10.00;78.50;;;;;;4813197;29;20094;-80
2022/02/15 09:31:07;;;;;;;5.95;4.22;;;10.00;78.50;;;;;;4828523;29;20030;-79
2022/02/15 09:33:32;;;;;;;5.97;4.10;;;10.10;78.50;;;;;;4828037;29;20196;-80
2022/02/15 09:35:58;;;;;;;6.57;3.85;;;10.10;78.50;;;;;;4827924;29;20034;-80
2022/02/15 09:38:24;;;;;;;6.30;3.85;;;10.10;78.50;;;;;;4812593;29;20034;-80
2022/02/15 09:40:52;;;;;;;6.40;3.85;;;10.10;78.50;;;;;;4828531;29;20042;-79
2022/02/15 09:43:18;;;;;;;5.88;4.00;;;10.10;78.40;;;;;;4828380;29;20045;-81
2022/02/15 09:45:47;;;;;;;5.35;3.65;;;10.20;78.50;;;;;;4797824;29;20050;-80
2022/02/15 09:48:14;;;;;;;5.50;3.65;;;10.20;78.50;;;;;;4828154;29;20054;-79
2022/02/15 09:50:41;;;;;;;5.97;3.72;;;10.20;78.40;;;;;;4827867;29;20542;-78
2022/02/15 09:53:07;;;;;;;4.50;3.03;;;10.20;78.40;;;;;;4813175;29;20086;-79
2022/02/15 09:55:33;;;;;;;5.47;3.63;;;10.30;78.40;;;;;;4827864;29;20030;-79
2022/02/15 09:57:59;;;;;;;4.93;3.38;;;10.30;78.50;;;;;;4828116;29;20384;-78
2022/02/15 10:00:26;;;;;;;4.53;3.38;;;10.30;78.40;;;;;;4828026;29;20049;-78
2022/02/15 10:02:52;;;;;;;5.70;3.80;;;10.30;78.40;;;;;;4827890;29;20034;-80
2022/02/15 10:05:20;;;;;;;4.75;3.40;;;10.30;78.40;;;;;;4844175;29;20037;-77
2022/02/15 10:07:49;;;;;;;5.55;3.40;;;10.30;78.40;;;;;;4813114;29;20038;-78
2022/02/15 10:10:30;;;;;;;5.32;3.55;;;10.40;78.50;;;;;;4827744;29;20042;-78
2022/02/15 10:13:01;;;;;;;4.75;3.10;;;10.40;78.50;;;;;;4812593;29;20060;-78
2022/02/15 10:15:29;;;;;;;4.50;3.15;;;10.40;78.40;;;;;;4844748;29;20081;-79
2022/02/15 10:18:19;;;;;;;5.03;3.08;;;10.40;78.40;;;;;;4826895;29;20034;-79
2022/02/15 10:20:46;;;;;;;4.85;3.10;;;10.40;78.50;;;;;;4844120;29;20042;-80
2022/02/15 10:23:17;;;;;;;3.63;2.53;;;10.40;78.30;;;;;;4811973;29;20044;-78
2022/02/15 10:25:44;;;;;;;4.60;2.78;;;10.50;78.40;;;;;;4812230;29;20053;-79
2022/02/15 10:28:15;;;;;;;4.35;3.00;;;10.50;78.40;;;;;;4812113;29;20381;-78
2022/02/15 10:30:52;;;;;;;4.25;2.70;;;10.60;78.50;;;;;;4827525;29;20141;-81
2022/02/15 10:33:20;;;;;;;4.40;2.80;;;10.60;78.50;;;;;;4827266;29;20117;-80
2022/02/15 10:36:00;;;;;;;4.90;2.50;;;10.60;78.40;;;;;;4827055;29;20030;-79
2022/02/15 10:38:29;;;;;;;3.58;2.42;;;10.60;78.40;;;;;;4827374;29;20030;-78
2022/02/15 10:40:56;;;;;;;3.83;2.75;;;10.70;78.40;;;;;;4843780;29;20459;-80
2022/02/15 10:43:22;;;;;;;4.22;2.40;;;10.70;78.40;;;;;;4811887;29;20135;-79
2022/02/15 10:45:48;;;;;;;4.20;2.70;;;10.70;78.30;;;;;;4827222;29;20112;-79
2022/02/15 10:48:14;;;;;;;4.10;2.50;;;10.70;78.30;;;;;;4810890;29;20034;-79
2022/02/15 10:50:40;;;;;;;3.20;2.33;;;10.70;78.30;;;;;;4811933;29;20086;-80
2022/02/15 10:53:07;;;;;;;3.20;2.33;;;10.80;79.00;;;;;;4826852;29;20030;-80
2022/02/15 10:55:33;;;;;;;2.97;2.40;;;10.80;78.30;;;;;;4811953;29;20064;-81
2022/02/15 10:58:01;;;;;;;3.38;2.35;;;10.80;78.30;;;;;;4811497;29;20038;-80
2022/02/15 11:00:27;;;;;;;2.83;2.25;;;10.80;78.30;;;;;;4826537;29;20048;-79
2022/02/15 11:02:55;;;;;;;3.28;2.20;;;10.90;78.30;;;;;;4826501;29;20045;-79
2022/02/15 11:05:21;;;;;;;2.50;1.90;;;10.90;78.30;;;;;;4811393;29;20051;-79
2022/02/15 11:07:47;;;;;;;2.78;2.00;;;10.90;78.30;;;;;;4811282;29;20042;-79
2022/02/15 11:10:27;;;;;;;3.83;2.08;;;10.90;78.20;;;;;;4781428;29;20069;-79
2022/02/15 11:12:59;;;;;;;3.92;2.00;;;11.00;78.30;;;;;;4810949;29;20078;-80
2022/02/15 11:15:28;;;;;;;3.90;2.22;;;11.00;78.30;;;;;;4811676;29;20061;-79
2022/02/15 11:17:57;;;;;;;2.95;2.20;;;11.00;78.20;;;;;;4843160;29;20045;-79
2022/02/15 11:20:27;;;;;;;2.85;2.05;;;11.00;78.20;;;;;;4811443;29;20133;-82
2022/02/15 11:22:55;;;;;;;4.60;2.03;;;11.10;78.20;;;;;;4811473;29;20054;-80
2022/02/15 11:25:41;;;;;;;4.68;2.67;;;11.10;78.20;;;;;;4811164;29;20030;-80
2022/02/15 11:28:14;;;;;;;2.30;1.92;;;11.10;78.30;;;;;;4811365;29;20133;-79
2022/02/15 11:30:55;;;;;;;3.92;1.90;;;11.10;78.20;;;;;;4826572;29;20413;-81
2022/02/15 11:33:30;;;;;;;2.17;1.98;;;11.20;78.30;;;;;;4811064;29;20034;-80
2022/02/15 11:36:05;;;;;;;2.53;1.90;;;11.20;78.20;;;;;;4811435;29;20117;-80
2022/02/15 11:38:31;;;;;;;2.75;1.70;;;11.20;78.20;;;;;;4826384;29;20034;-80
2022/02/15 11:41:05;;;;;;;3.72;2.00;;;11.20;78.10;;;;;;4811810;29;20045;-80
2022/02/15 11:43:32;;;;;;;3.28;1.92;;;11.20;78.10;;;;;;4811225;29;20048;-79
2022/02/15 11:46:00;;;;;;;2.80;1.70;;;11.30;78.10;;;;;;4842710;29;20072;-79
2022/02/15 11:48:43;;;;;;;2.95;1.88;;;11.30;78.10;;;;;;4842876;29;20033;-81
2022/02/15 11:51:19;;;;;;;3.47;1.92;;;11.30;78.20;;;;;;4826246;29;20040;-79
2022/02/15 11:53:47;;;;;;;2.78;1.80;;;11.40;78.20;;;;;;4811131;29;20041;-80
2022/02/15 11:56:15;;;;;;;1.95;1.70;;;11.40;78.10;;;;;;4826268;29;20124;-79
2022/02/15 11:58:51;;;;;;;2.05;1.67;;;11.40;78.10;;;;;;4826269;29;20030;-81
2022/02/15 12:01:30;;;;;;;2.13;1.52;;;11.50;78.20;;;;;;4830282;29;20050;-79
2022/02/15 12:04:00;;;;;;;2.95;1.50;;;11.40;78.20;;;;;;4800121;29;20425;-79
2022/02/15 12:06:41;;;;;;;3.35;1.80;;;11.50;78.80;;;;;;4829277;29;20384;-79
2022/02/15 12:09:09;;;;;;;4.43;1.70;;;11.50;78.20;;;;;;4814329;29;20034;-80
2022/02/15 12:11:40;;;;;;;1.95;1.60;;;11.50;78.10;;;;;;4814298;29;20090;-79
2022/02/15 12:14:14;;;;;;;3.38;1.80;;;11.50;78.10;;;;;;4828927;29;20436;-79
2022/02/15 12:16:41;;;;;;;2.25;1.73;;;11.60;78.20;;;;;;4829001;29;20062;-79
2022/02/15 12:19:07;;;;;;;2.00;1.70;;;11.60;78.10;;;;;;4828970;29;20057;-80
2022/02/15 12:21:39;;;;;;;1.75;1.50;;;11.60;78.10;;;;;;4829419;29;20030;-79
2022/02/15 12:24:05;;;;;;;2.33;1.70;;;11.60;78.10;;;;;;4828508;29;20034;-80
2022/02/15 12:26:51;;;;;;;;;;;11.70;78.10;;;;;;4819501;29;20030;-79
2022/02/15 12:29:16;;;;;;;2.20;1.70;;;11.70;78.10;;;;;;4813550;29;20011;-79
2022/02/15 12:31:43;;;;;;;1.48;1.35;;;11.70;78.00;;;;;;4814675;29;20121;-79
2022/02/15 12:34:10;;;;;;;2.60;1.80;;;11.70;78.10;;;;;;4828746;29;20058;-79
2022/02/15 12:36:36;;;;;;;2.00;1.75;;;11.70;78.10;;;;;;4828721;29;20490;-78
2022/02/15 12:39:10;;;;;;;2.10;1.65;;;11.80;78.10;;;;;;4828836;29;20034;-79
2022/02/15 12:41:38;;;;;;;3.40;1.63;;;11.80;78.10;;;;;;4845014;29;20368;-78
2022/02/15 12:44:06;;;;;;;2.75;1.77;;;11.80;78.00;;;;;;4814075;29;20119;-80
2022/02/15 12:46:33;;;;;;;2.42;1.80;;;11.80;78.00;;;;;;4828751;29;20076;-80
2022/02/15 12:49:01;;;;;;;1.83;1.52;;;11.90;78.10;;;;;;4814137;29;20125;-79
2022/02/15 12:51:31;;;;;;;1.95;1.75;;;11.90;78.00;;;;;;4845362;29;20399;-78
2022/02/15 12:53:58;;;;;;;2.38;2.17;;;11.90;77.90;;;;;;4828646;29;20045;-79
2022/02/15 12:56:26;;;;;;;2.40;2.00;;;11.90;77.90;;;;;;4829204;29;20041;-78
2022/02/15 12:58:55;;;;;;;2.97;2.08;;;12.00;77.90;;;;;;4845347;29;20026;-79
2022/02/15 13:01:21;;;;;;;2.50;2.10;;;12.00;77.90;;;;;;4828525;29;20515;-79
2022/02/15 13:03:51;;;;;;;2.55;1.98;;;12.00;77.80;;;;;;4845091;29;20037;-79